Terminal Aerodrome Forecast
Issued by NWS

Home | Current Version | Previous Version | Text Only | Print | Product List | Glossary On
Versions: 1 2 3 4 5 6 7 8 9 10 11 12 13 14 15 16 17 18 19 20
000
FTUS42 KGSP 270039 AAA
TAFGMU
TAF AMD
KGMU 270039Z 2701/2724 21010KT P6SM -SHRA SCT040 OVC100
     FM270500 24005KT P6SM -SHRA OVC020
     FM270900 20003KT P6SM OVC008
     FM271500 19005KT P6SM VCSH OVC021
     FM271700 18007KT P6SM -SHRA SCT030 BKN040 PROB30 2718/2722 4SM
      TSRA BKN020CB=

USA.gov is the U.S. government's official web portal to all federal, state and local government web resources and services.